createdAt,value
2022-09-16T00:01:43.824Z,99559.53
2022-09-16T00:04:11.535Z,99556.78
2022-09-16T00:06:39.280Z,99550.50
2022-09-16T00:09:07.070Z,99555.97
2022-09-16T00:11:35.461Z,99559.75
2022-09-16T00:14:03.141Z,99556.19
2022-09-16T00:16:30.887Z,99551.56
2022-09-16T00:18:59.838Z,99549.66
2022-09-16T00:21:27.648Z,99548.00
2022-09-16T00:23:55.375Z,99562.47
2022-09-16T00:26:23.449Z,99564.97
2022-09-16T00:28:51.529Z,99561.66
2022-09-16T00:31:19.361Z,99561.66
2022-09-16T00:33:47.163Z,99557.84
2022-09-16T00:36:15.042Z,99561.66
2022-09-16T00:38:42.772Z,99559.75
2022-09-16T00:41:10.502Z,99556.19
2022-09-16T00:43:38.474Z,99556.19
2022-09-16T00:46:06.165Z,99556.41
2022-09-16T00:48:34.173Z,99555.56
2022-09-16T00:51:01.898Z,99559.97
2022-09-16T00:53:29.735Z,99558.06
2022-09-16T00:55:57.420Z,99559.13
2022-09-16T00:58:25.087Z,99552.84
2022-09-16T01:00:52.758Z,99556.59
2022-09-16T01:03:20.481Z,99560.41
2022-09-16T01:05:48.238Z,99563.13
2022-09-16T01:08:16.315Z,99566.06
2022-09-16T01:10:44.028Z,99568.78
2022-09-16T01:13:11.767Z,99569.66
2022-09-16T01:15:39.481Z,99563.31
2022-09-16T01:18:07.136Z,99566.69
2022-09-16T01:20:34.820Z,99567.53
2022-09-16T01:23:02.521Z,99564.78
2022-09-16T01:25:30.202Z,99566.47
2022-09-16T01:27:58.094Z,99570.25
2022-09-16T01:30:25.764Z,99557.66
2022-09-16T01:32:53.553Z,99557.88
2022-09-16T01:35:21.500Z,99563.31
2022-09-16T01:37:49.154Z,99569.66
2022-09-16T01:40:16.884Z,99563.31
2022-09-16T01:42:47.113Z,99561.47
2022-09-16T01:45:14.773Z,99557.03
2022-09-16T01:47:42.471Z,99553.47
2022-09-16T01:50:10.116Z,99555.38
2022-09-16T01:52:37.795Z,99551.56
2022-09-16T01:55:05.491Z,99553.28
2022-09-16T01:57:33.320Z,99548.66
2022-09-16T02:00:00.974Z,99546.13
2022-09-16T02:02:29.449Z,99535.19
2022-09-16T02:04:57.232Z,99545.28
2022-09-16T02:07:24.903Z,99542.34
2022-09-16T02:09:52.656Z,99535.19
2022-09-16T02:12:20.340Z,99540.03
2022-09-16T02:14:48.039Z,99536.47
2022-09-16T02:17:15.764Z,99531.84
2022-09-16T02:19:43.471Z,99534.56
2022-09-16T02:22:11.126Z,99534.56
2022-09-16T02:24:39.342Z,99533.53
2022-09-16T02:27:08.779Z,99541.09
2022-09-16T02:29:36.431Z,99546.56
2022-09-16T02:32:04.119Z,99550.94
2022-09-16T02:34:31.936Z,99549.28
2022-09-16T02:36:59.587Z,99542.16
2022-09-16T02:39:27.428Z,99546.56
2022-09-16T02:41:55.281Z,99548.66
2022-09-16T02:44:23.074Z,99542.16
2022-09-16T02:46:50.847Z,99537.72
2022-09-16T02:49:18.850Z,99546.75
2022-09-16T02:51:47.040Z,99547.81
2022-09-16T02:54:14.709Z,99543.19
2022-09-16T02:56:42.620Z,99540.25
2022-09-16T02:59:10.485Z,99545.91
2022-09-16T03:01:38.201Z,99547.81
2022-09-16T03:04:06.410Z,99544.03
2022-09-16T03:06:36.317Z,99544.25
2022-09-16T03:09:04.008Z,99547.19
2022-09-16T03:11:31.690Z,99549.91
2022-09-16T03:13:59.468Z,99549.72
2022-09-16T03:16:27.245Z,99550.75
2022-09-16T03:18:55.095Z,99553.28
2022-09-16T03:21:23.055Z,99545.28
2022-09-16T03:23:50.718Z,99553.47
2022-09-16T03:26:18.432Z,99552.66
2022-09-16T03:28:46.151Z,99544.69
2022-09-16T03:31:13.985Z,99542.78
2022-09-16T03:33:41.753Z,99546.34
2022-09-16T03:36:09.514Z,99545.72
2022-09-16T03:38:37.314Z,99538.16
2022-09-16T03:41:05.000Z,99540.91
2022-09-16T03:43:32.706Z,99547.44
2022-09-16T03:46:00.773Z,99550.75
2022-09-16T03:48:28.482Z,99536.50
2022-09-16T03:50:56.112Z,99549.09
2022-09-16T03:53:23.760Z,99548.47
2022-09-16T03:55:51.418Z,99552.03
2022-09-16T03:58:19.117Z,99550.97
2022-09-16T04:00:46.795Z,99546.34
2022-09-16T04:03:14.446Z,99551.63
2022-09-16T04:05:42.185Z,99549.09
2022-09-16T04:08:10.029Z,99549.09
2022-09-16T04:10:37.659Z,99542.78
2022-09-16T04:13:05.334Z,99543.63
2022-09-16T04:15:35.096Z,99540.91
2022-09-16T04:18:03.110Z,99538.16
2022-09-16T04:20:30.748Z,99538.16
2022-09-16T04:22:58.682Z,99539.84
2022-09-16T04:25:26.364Z,99537.34
2022-09-16T04:27:54.027Z,99545.72
2022-09-16T04:30:21.743Z,99536.50
2022-09-16T04:32:49.431Z,99529.34
2022-09-16T04:35:19.507Z,99533.97
2022-09-16T04:37:47.505Z,99535.03
2022-09-16T04:40:15.315Z,99544.91
2022-09-16T04:42:42.997Z,99543.63
2022-09-16T04:45:10.705Z,99540.06
2022-09-16T04:47:38.396Z,99544.25
2022-09-16T04:50:06.549Z,99543.19
2022-09-16T04:52:34.465Z,99537.09
2022-09-16T04:55:02.204Z,99536.91
2022-09-16T04:57:29.875Z,99536.69
2022-09-16T04:59:57.527Z,99539.44
2022-09-16T05:02:25.197Z,99541.94
2022-09-16T05:04:52.887Z,99533.53
2022-09-16T05:07:20.722Z,99535.44
2022-09-16T05:09:48.582Z,99545.50
2022-09-16T05:12:16.245Z,99541.94
2022-09-16T05:14:44.026Z,99545.50
2022-09-16T05:17:19.331Z,99545.72
2022-09-16T05:19:59.509Z,99552.00
2022-09-16T05:22:27.325Z,99556.63
2022-09-16T05:24:55.238Z,99552.00
2022-09-16T05:27:23.396Z,99559.13
2022-09-16T05:29:51.101Z,99549.91
2022-09-16T05:32:18.819Z,99546.34
2022-09-16T05:34:46.549Z,99547.19
2022-09-16T05:37:14.282Z,99546.94
2022-09-16T05:39:41.996Z,99545.28
2022-09-16T05:42:09.682Z,99544.22
2022-09-16T05:44:37.627Z,99552.41
2022-09-16T05:47:05.250Z,99549.47
2022-09-16T05:49:32.997Z,99549.69
2022-09-16T05:52:00.653Z,99538.56
2022-09-16T05:54:28.286Z,99541.28
2022-09-16T05:56:55.965Z,99542.94
2022-09-16T05:59:24.087Z,99547.38
2022-09-16T06:01:51.814Z,99545.69
2022-09-16T06:04:19.508Z,99542.13
2022-09-16T06:06:47.203Z,99546.31
2022-09-16T06:09:14.928Z,99555.56
2022-09-16T06:11:42.628Z,99551.78
2022-09-16T06:14:10.275Z,99543.56
2022-09-16T06:16:37.938Z,99552.00
2022-09-16T06:19:05.636Z,99547.13
2022-09-16T06:21:33.527Z,99553.66
2022-09-16T06:24:01.195Z,99561.66
2022-09-16T06:26:29.010Z,99552.59
2022-09-16T06:28:56.651Z,99551.78
2022-09-16T06:31:24.421Z,99553.47
2022-09-16T06:33:52.084Z,99554.50
2022-09-16T06:36:19.762Z,99546.72
2022-09-16T06:38:47.457Z,99548.59
2022-09-16T06:41:15.161Z,99545.03
2022-09-16T06:43:42.853Z,99546.94
2022-09-16T06:46:13.638Z,99547.56
2022-09-16T06:48:42.246Z,99550.28
2022-09-16T06:51:09.956Z,99552.41
2022-09-16T06:53:37.613Z,99545.88
2022-09-16T06:56:05.480Z,99547.78
2022-09-16T06:58:33.123Z,99544.00
2022-09-16T07:01:01.029Z,99541.28
2022-09-16T07:03:28.717Z,99544.84
2022-09-16T07:05:56.854Z,99545.66
2022-09-16T07:08:24.894Z,99549.63
2022-09-16T07:10:52.726Z,99543.56
2022-09-16T07:13:20.443Z,99535.38
2022-09-16T07:16:11.920Z,99546.06
2022-09-16T07:18:36.028Z,99541.03
2022-09-16T07:21:04.441Z,99539.38
2022-09-16T07:23:32.468Z,99542.09
2022-09-16T07:26:00.161Z,99540.00
2022-09-16T07:28:27.880Z,99541.44
2022-09-16T07:30:55.987Z,99541.44
2022-09-16T07:33:23.766Z,99536.84
2022-09-16T07:35:51.437Z,99545.03
2022-09-16T07:38:19.151Z,99542.28
2022-09-16T07:40:46.858Z,99547.75
2022-09-16T07:43:14.542Z,99552.78
2022-09-16T07:45:42.265Z,99562.88
2022-09-16T07:48:10.261Z,99562.88
2022-09-16T07:50:37.894Z,99562.88
2022-09-16T07:53:05.584Z,99565.59
2022-09-16T07:55:33.269Z,99561.16
2022-09-16T07:58:00.990Z,99561.41
2022-09-16T08:00:28.693Z,99571.06
2022-09-16T08:02:56.459Z,99570.19
2022-09-16T08:05:24.186Z,99574.00
2022-09-16T08:07:51.905Z,99564.72
2022-09-16T08:10:19.589Z,99558.00
2022-09-16T08:12:47.281Z,99557.81
2022-09-16T08:15:14.991Z,99561.59
2022-09-16T08:17:42.666Z,99565.59
2022-09-16T08:20:10.392Z,99564.72
2022-09-16T08:22:38.055Z,99562.00
2022-09-16T08:25:05.829Z,99571.25
2022-09-16T08:27:33.513Z,99555.72
2022-09-16T08:30:01.313Z,99554.88
2022-09-16T08:32:28.955Z,99565.59
2022-09-16T08:34:56.654Z,99560.13
2022-09-16T08:37:24.336Z,99559.91
2022-09-16T08:39:52.217Z,99554.44
2022-09-16T08:42:22.079Z,99552.97
2022-09-16T08:44:52.589Z,99549.41
2022-09-16T08:47:20.251Z,99548.97
2022-09-16T08:49:48.060Z,99552.78
2022-09-16T08:52:15.739Z,99540.78
2022-09-16T08:54:43.480Z,99543.53
2022-09-16T08:57:11.180Z,99552.34
2022-09-16T08:59:38.891Z,99546.44
2022-09-16T09:02:09.485Z,99540.97
2022-09-16T09:04:37.629Z,99535.34
2022-09-16T09:07:05.392Z,99545.44
2022-09-16T09:09:33.128Z,99542.88
2022-09-16T09:12:00.938Z,99545.44
2022-09-16T09:14:29.960Z,99541.81
2022-09-16T09:16:57.668Z,99540.97
2022-09-16T09:19:25.463Z,99539.50
2022-09-16T09:21:53.216Z,99536.41
2022-09-16T09:24:20.933Z,99552.97
2022-09-16T09:26:48.621Z,99568.53
2022-09-16T09:29:16.373Z,99558.03
2022-09-16T09:31:44.641Z,99563.28
2022-09-16T09:34:12.365Z,99552.97
2022-09-16T09:36:40.124Z,99551.09
2022-09-16T09:39:07.882Z,99554.69
2022-09-16T09:41:35.596Z,99552.53
2022-09-16T09:44:03.335Z,99561.16
2022-09-16T09:46:31.226Z,99551.28
2022-09-16T09:48:58.997Z,99548.97
2022-09-16T09:51:27.874Z,99545.63
2022-09-16T09:53:55.584Z,99538.50
2022-09-16T09:56:23.253Z,99535.13
2022-09-16T09:58:50.962Z,99539.75
2022-09-16T10:01:18.703Z,99533.47
2022-09-16T10:03:46.484Z,99518.75
2022-09-16T10:06:14.211Z,99516.66
2022-09-16T10:08:41.905Z,99514.75
2022-09-16T10:11:09.631Z,99523.78
2022-09-16T10:13:37.303Z,99516.66
2022-09-16T10:16:04.975Z,99516.66
2022-09-16T10:18:33.499Z,99521.50
2022-09-16T10:21:01.177Z,99519.59
2022-09-16T10:23:30.320Z,99512.25
2022-09-16T10:25:58.289Z,99509.53
2022-09-16T10:28:26.034Z,99513.28
2022-09-16T10:30:53.750Z,99510.56
2022-09-16T10:33:21.498Z,99506.81
2022-09-16T10:35:49.209Z,99504.06
2022-09-16T10:38:18.224Z,99505.72
2022-09-16T10:40:45.946Z,99501.72
2022-09-16T10:43:13.608Z,99498.16
2022-09-16T10:45:41.347Z,99489.16
2022-09-16T10:48:09.035Z,99492.72
2022-09-16T10:50:36.864Z,99492.72
2022-09-16T10:53:04.548Z,99491.00
2022-09-16T10:55:35.274Z,99489.97
2022-09-16T10:58:02.976Z,99481.53
2022-09-16T11:00:31.894Z,99479.06
2022-09-16T11:02:59.743Z,99491.44
2022-09-16T11:05:27.479Z,99484.06
2022-09-16T11:07:55.293Z,99488.47
2022-09-16T11:10:23.308Z,99487.25
2022-09-16T11:12:51.054Z,99485.34
2022-09-16T11:15:18.795Z,99486.19
2022-09-16T11:17:46.942Z,99482.63
2022-09-16T11:20:14.756Z,99489.53
2022-09-16T11:22:42.485Z,99484.06
2022-09-16T11:25:10.372Z,99479.25
2022-09-16T11:27:38.157Z,99479.44
2022-09-16T11:30:06.149Z,99481.78
2022-09-16T11:32:35.580Z,99478.00
2022-09-16T11:35:03.503Z,99472.53
2022-09-16T11:37:31.867Z,99473.59
2022-09-16T11:39:59.636Z,99469.16
2022-09-16T11:42:27.411Z,99476.31
2022-09-16T11:44:55.283Z,99491.63
2022-09-16T11:47:23.010Z,99486.19
2022-09-16T11:49:50.748Z,99486.41
2022-09-16T11:52:18.514Z,99499.19
2022-09-16T11:54:46.241Z,99490.41
2022-09-16T11:57:15.086Z,99486.63
2022-09-16T11:59:43.098Z,99483.88
2022-09-16T12:02:11.321Z,99492.72
2022-09-16T12:04:39.473Z,99495.19
2022-09-16T12:07:07.188Z,99491.19
2022-09-16T12:09:34.916Z,99488.47
2022-09-16T12:12:02.684Z,99478.63
2022-09-16T12:14:31.481Z,99488.91
2022-09-16T12:16:59.205Z,99476.09
2022-09-16T12:19:27.036Z,99481.53
2022-09-16T12:21:57.899Z,99485.34
2022-09-16T12:24:26.103Z,99484.50
2022-09-16T12:26:54.291Z,99469.16
2022-09-16T12:29:22.059Z,99466.44
2022-09-16T12:31:49.819Z,99471.31
2022-09-16T12:34:18.469Z,99470.44
2022-09-16T12:36:46.206Z,99465.22
2022-09-16T12:39:13.918Z,99468.78
2022-09-16T12:41:41.939Z,99481.38
2022-09-16T12:44:30.680Z,99468.78
2022-09-16T12:46:57.418Z,99467.13
2022-09-16T12:49:25.178Z,99469.59
2022-09-16T12:51:52.877Z,99472.34
2022-09-16T12:54:20.581Z,99460.38
2022-09-16T12:56:48.326Z,99462.25
2022-09-16T12:59:16.085Z,99449.66
2022-09-16T13:01:43.908Z,99453.22
2022-09-16T13:04:12.119Z,99444.22
2022-09-16T13:06:39.799Z,99432.66
2022-09-16T13:09:07.521Z,99444.44
2022-09-16T13:14:23.033Z,99440.84
2022-09-16T13:16:50.809Z,99434.34
2022-09-16T13:19:18.499Z,99433.53
2022-09-16T13:21:47.147Z,99442.53
2022-09-16T13:24:14.844Z,99445.88
2022-09-16T13:26:47.076Z,99433.28
2022-09-16T13:29:14.783Z,99435.19
2022-09-16T13:31:42.708Z,99432.47
2022-09-16T13:34:10.451Z,99437.69
2022-09-16T13:36:38.165Z,99436.19
2022-09-16T13:39:05.896Z,99415.41
2022-09-16T13:41:33.683Z,99417.91
2022-09-16T13:44:01.306Z,99418.97
2022-09-16T13:46:29.003Z,99411.84
2022-09-16T13:48:56.799Z,99419.19
2022-09-16T13:51:24.449Z,99423.81
2022-09-16T13:53:52.198Z,99420.66
2022-09-16T13:56:19.927Z,99417.91
2022-09-16T13:58:47.553Z,99421.47
2022-09-16T14:01:15.301Z,99418.75
2022-09-16T14:03:43.009Z,99407.00
2022-09-16T14:06:10.720Z,99409.09
2022-09-16T14:08:38.484Z,99416.25
2022-09-16T14:11:06.166Z,99410.78
2022-09-16T14:13:33.929Z,99406.38
2022-09-16T14:16:01.712Z,99396.53
2022-09-16T14:18:29.444Z,99401.97
2022-09-16T14:20:57.181Z,99395.06
2022-09-16T14:23:24.892Z,99388.13
2022-09-16T14:25:55.555Z,99387.44
2022-09-16T14:28:23.598Z,99396.91
2022-09-16T14:30:51.391Z,99393.34
2022-09-16T14:33:19.891Z,99390.59
2022-09-16T14:35:47.591Z,99382.66
2022-09-16T14:38:41.294Z,99380.97
2022-09-16T14:41:02.958Z,99392.13
2022-09-16T14:43:30.650Z,99384.78
2022-09-16T14:48:30.992Z,99378.69
2022-09-16T14:50:58.930Z,99384.97
2022-09-16T14:53:34.775Z,99382.47
2022-09-16T14:56:03.054Z,99375.13
2022-09-16T14:58:30.794Z,99385.22
2022-09-16T15:00:59.047Z,99379.50
2022-09-16T15:03:26.684Z,99371.31
2022-09-16T15:05:54.332Z,99375.94
2022-09-16T15:08:22.044Z,99369.66
2022-09-16T15:10:52.391Z,99364.19
2022-09-16T15:13:20.839Z,99362.53
2022-09-16T15:15:48.525Z,99368.00
2022-09-16T15:18:16.169Z,99370.50
2022-09-16T15:20:43.884Z,99362.53
2022-09-16T15:23:12.970Z,99359.81
2022-09-16T15:25:40.724Z,99364.41
2022-09-16T15:28:08.414Z,99362.53
2022-09-16T15:30:36.284Z,99364.19
2022-09-16T15:33:04.152Z,99363.38
2022-09-16T15:35:35.546Z,99366.94
2022-09-16T15:38:03.711Z,99365.28
2022-09-16T15:40:31.775Z,99360.63
2022-09-16T15:42:59.827Z,99362.75
2022-09-16T15:45:27.566Z,99356.22
2022-09-16T15:47:55.494Z,99354.34
2022-09-16T15:50:23.523Z,99359.81
2022-09-16T15:52:51.416Z,99351.84
2022-09-16T15:55:19.109Z,99347.19
2022-09-16T15:57:46.761Z,99352.66
2022-09-16T16:00:16.209Z,99349.09
2022-09-16T16:02:43.971Z,99352.91
2022-09-16T16:05:11.755Z,99349.31
2022-09-16T16:07:39.877Z,99356.47
2022-09-16T16:10:08.773Z,99355.38
2022-09-16T16:12:36.537Z,99355.38
2022-09-16T16:15:04.636Z,99362.53
2022-09-16T16:17:32.268Z,99354.56
2022-09-16T16:20:00.087Z,99354.56
2022-09-16T16:22:29.074Z,99355.38
2022-09-16T16:24:56.839Z,99354.56
2022-09-16T16:27:24.639Z,99358.94
2022-09-16T16:29:53.622Z,99357.91
2022-09-16T16:32:21.517Z,99354.94
2022-09-16T16:34:50.144Z,99357.91
2022-09-16T16:37:40.178Z,99364.66
2022-09-16T16:40:05.850Z,99356.66
2022-09-16T16:42:33.722Z,99361.09
2022-09-16T16:45:01.679Z,99366.31
2022-09-16T16:47:29.392Z,99364.66
2022-09-16T16:49:57.629Z,99366.31
2022-09-16T16:52:25.282Z,99364.66
2022-09-16T16:54:52.970Z,99361.91
2022-09-16T16:57:20.607Z,99374.50
2022-09-16T16:59:48.260Z,99372.00
2022-09-16T17:02:16.352Z,99372.00
2022-09-16T17:04:44.053Z,99362.97
2022-09-16T17:09:50.561Z,99373.03
2022-09-16T17:12:18.409Z,99372.00
2022-09-16T17:14:46.118Z,99367.59
2022-09-16T17:17:13.789Z,99376.59
2022-09-16T17:19:41.533Z,99374.75
2022-09-16T17:22:09.427Z,99376.59
2022-09-16T17:24:37.229Z,99376.59
2022-09-16T17:27:05.027Z,99379.34
2022-09-16T17:29:32.974Z,99377.69
2022-09-16T17:32:02.936Z,99376.00
2022-09-16T17:34:31.376Z,99384.19
2022-09-16T17:36:59.181Z,99382.06
2022-09-16T17:39:26.901Z,99391.31
2022-09-16T17:41:56.856Z,99385.88
2022-09-16T17:44:24.661Z,99392.41
2022-09-16T17:46:52.405Z,99394.88
2022-09-16T17:49:20.266Z,99392.41
2022-09-16T17:51:47.975Z,99397.84
2022-09-16T17:54:15.907Z,99397.41
2022-09-16T17:56:43.589Z,99398.44
2022-09-16T17:59:11.492Z,99393.00
2022-09-16T18:01:39.146Z,99396.78
2022-09-16T18:04:07.204Z,99403.31
2022-09-16T18:06:35.833Z,99397.00
2022-09-16T18:09:03.831Z,99398.06
2022-09-16T18:11:31.492Z,99415.06
2022-09-16T18:13:59.287Z,99413.38
2022-09-16T18:16:27.029Z,99414.22
2022-09-16T18:18:54.747Z,99408.78
2022-09-16T18:21:23.188Z,99414.22
2022-09-16T18:23:51.065Z,99415.91
2022-09-16T18:26:19.183Z,99420.72
2022-09-16T18:29:08.756Z,99417.16
2022-09-16T18:31:34.901Z,99428.53
2022-09-16T18:34:02.585Z,99421.16
2022-09-16T18:36:30.980Z,99416.53
2022-09-16T18:38:59.126Z,99428.75
2022-09-16T18:41:26.832Z,99427.47
2022-09-16T18:43:54.620Z,99423.91
2022-09-16T18:46:26.315Z,99431.25
2022-09-16T18:48:54.640Z,99432.09
2022-09-16T18:51:22.524Z,99434.81
2022-09-16T18:53:50.377Z,99429.38
2022-09-16T18:56:18.056Z,99434.00
2022-09-16T18:59:03.679Z,99433.16
2022-09-16T19:01:35.669Z,99429.56
2022-09-16T19:04:03.984Z,99430.63
2022-09-16T19:06:31.730Z,99425.19
2022-09-16T19:08:59.513Z,99426.00
2022-09-16T19:11:27.224Z,99426.00
2022-09-16T19:13:55.647Z,99426.00
2022-09-16T19:16:23.441Z,99433.16
2022-09-16T19:18:51.139Z,99424.97
2022-09-16T19:21:18.941Z,99426.84
2022-09-16T19:23:47.135Z,99434.19
2022-09-16T19:26:15.036Z,99434.19
2022-09-16T19:28:42.731Z,99435.88
2022-09-16T19:31:10.461Z,99431.47
2022-09-16T19:33:38.176Z,99434.19
2022-09-16T19:36:06.153Z,99432.31
2022-09-16T19:38:33.848Z,99427.69
2022-09-16T19:41:01.493Z,99441.56
2022-09-16T19:43:29.239Z,99434.19
2022-09-16T19:45:57.376Z,99434.19
2022-09-16T19:48:25.253Z,99431.72
2022-09-16T19:50:53.203Z,99431.47
2022-09-16T19:53:20.936Z,99430.63
2022-09-16T19:55:48.625Z,99427.06
2022-09-16T19:58:16.304Z,99439.91
2022-09-16T20:00:55.825Z,99441.75
2022-09-16T20:03:23.813Z,99430.84
2022-09-16T20:05:51.614Z,99431.91
2022-09-16T20:08:19.277Z,99435.47
2022-09-16T20:10:46.992Z,99435.47
2022-09-16T20:13:14.939Z,99430.00
2022-09-16T20:15:42.664Z,99433.56
2022-09-16T20:18:10.478Z,99426.44
2022-09-16T20:20:38.159Z,99422.88
2022-09-16T20:23:05.865Z,99423.72
2022-09-16T20:25:33.800Z,99423.72
2022-09-16T20:28:01.508Z,99424.78
2022-09-16T20:30:29.256Z,99432.13
2022-09-16T20:32:57.094Z,99432.34
2022-09-16T20:35:24.795Z,99433.38
2022-09-16T20:37:52.478Z,99433.38
2022-09-16T20:40:20.211Z,99435.28
2022-09-16T20:42:48.095Z,99432.78
2022-09-16T20:45:15.767Z,99433.63
2022-09-16T20:47:43.477Z,99437.38
2022-09-16T20:50:11.215Z,99436.34
2022-09-16T20:52:38.862Z,99434.47
2022-09-16T20:55:06.595Z,99433.81
2022-09-16T20:57:34.411Z,99434.66
2022-09-16T21:00:02.222Z,99438.25
2022-09-16T21:02:29.989Z,99430.25
2022-09-16T21:05:03.694Z,99433.63
2022-09-16T21:07:31.528Z,99443.72
2022-09-16T21:09:59.294Z,99434.66
2022-09-16T21:12:27.236Z,99431.94
2022-09-16T21:14:55.112Z,99433.00
2022-09-16T21:17:22.793Z,99432.16
2022-09-16T21:19:51.325Z,99428.38
2022-09-16T21:22:19.526Z,99430.06
2022-09-16T21:24:47.228Z,99427.34
2022-09-16T21:27:14.931Z,99433.63
2022-09-16T21:29:43.403Z,99431.94
2022-09-16T21:32:11.101Z,99433.81
2022-09-16T21:34:38.787Z,99440.97
2022-09-16T21:37:06.568Z,99442.00
2022-09-16T21:39:34.474Z,99443.09
2022-09-16T21:42:02.209Z,99439.28
2022-09-16T21:44:30.191Z,99440.34
2022-09-16T21:46:57.915Z,99438.66
2022-09-16T21:49:25.720Z,99444.13
2022-09-16T21:51:53.539Z,99439.53
2022-09-16T21:56:49.342Z,99440.78
2022-09-16T21:59:18.974Z,99439.94
2022-09-16T22:01:46.916Z,99439.09
2022-09-16T22:04:14.684Z,99434.28
2022-09-16T22:06:42.336Z,99444.13
2022-09-16T22:09:10.036Z,99435.34
2022-09-16T22:11:38.500Z,99431.75
2022-09-16T22:16:34.173Z,99426.91
2022-09-16T22:19:01.839Z,99426.09
2022-09-16T22:21:29.525Z,99431.75
2022-09-16T22:23:57.315Z,99429.88
2022-09-16T22:26:25.019Z,99433.63
2022-09-16T22:28:52.665Z,99433.63
2022-09-16T22:31:20.529Z,99429.00
2022-09-16T22:33:48.305Z,99434.72
2022-09-16T22:36:16.078Z,99431.97
2022-09-16T22:38:43.809Z,99424.63
2022-09-16T22:41:11.504Z,99427.34
2022-09-16T22:43:39.495Z,99427.16
2022-09-16T22:46:07.400Z,99425.47
2022-09-16T22:48:35.201Z,99427.16
2022-09-16T22:51:02.915Z,99418.09
2022-09-16T22:53:30.642Z,99421.69
2022-09-16T22:55:58.366Z,99422.72
2022-09-16T22:58:26.052Z,99431.97
2022-09-16T23:00:53.804Z,99418.34
2022-09-16T23:03:21.898Z,99414.78
2022-09-16T23:05:49.599Z,99421.06
2022-09-16T23:08:18.194Z,99416.66
2022-09-16T23:10:45.968Z,99424.84
2022-09-16T23:13:13.681Z,99416.44
2022-09-16T23:15:41.427Z,99421.06
2022-09-16T23:18:09.150Z,99421.06
2022-09-16T23:20:36.893Z,99416.66
2022-09-16T23:23:04.617Z,99415.59
2022-09-16T23:25:32.294Z,99413.94
2022-09-16T23:27:59.992Z,99416.88
2022-09-16T23:30:30.521Z,99414.16
2022-09-16T23:32:58.328Z,99404.06
2022-09-16T23:35:26.751Z,99409.75
2022-09-16T23:37:56.829Z,99407.03
2022-09-16T23:40:31.778Z,99410.59
2022-09-16T23:42:59.453Z,99408.91
2022-09-16T23:45:27.165Z,99403.44
2022-09-16T23:47:54.945Z,99400.50
2022-09-16T23:50:22.618Z,99403.22
2022-09-16T23:52:50.315Z,99406.16
2022-09-16T23:55:18.068Z,99399.69
2022-09-16T23:57:45.790Z,99408.69
